sensor_id;sensor_type;location;lat;lon;timestamp;P1;durP1;ratioP1;P2;durP2;ratioP2
55617;SDS011;41492;49.804;9.952;2022-10-16T00:01:30;1.08;;;1.00;;
55617;SDS011;41492;49.804;9.952;2022-10-16T00:03:59;649.97;;;376.45;;
55617;SDS011;41492;49.804;9.952;2022-10-16T00:06:27;0.73;;;0.73;;
55617;SDS011;41492;49.804;9.952;2022-10-16T00:08:54;661.20;;;353.90;;
55617;SDS011;41492;49.804;9.952;2022-10-16T00:11:22;682.03;;;368.38;;
55617;SDS011;41492;49.804;9.952;2022-10-16T00:13:51;676.67;;;362.83;;
55617;SDS011;41492;49.804;9.952;2022-10-16T00:16:20;698.70;;;381.48;;
55617;SDS011;41492;49.804;9.952;2022-10-16T00:18:47;621.50;;;271.60;;
55617;SDS011;41492;49.804;9.952;2022-10-16T00:21:16;461.60;;;311.92;;
55617;SDS011;41492;49.804;9.952;2022-10-16T00:23:43;1.30;;;1.20;;
55617;SDS011;41492;49.804;9.952;2022-10-16T00:26:12;659.85;;;398.17;;
55617;SDS011;41492;49.804;9.952;2022-10-16T00:28:41;51.72;;;49.33;;
55617;SDS011;41492;49.804;9.952;2022-10-16T00:31:08;640.38;;;295.50;;
55617;SDS011;41492;49.804;9.952;2022-10-16T00:33:37;594.63;;;222.02;;
55617;SDS011;41492;49.804;9.952;2022-10-16T00:36:05;68.20;;;64.32;;
55617;SDS011;41492;49.804;9.952;2022-10-16T00:38:34;415.00;;;369.98;;
55617;SDS011;41492;49.804;9.952;2022-10-16T00:41:02;616.85;;;251.73;;
55617;SDS011;41492;49.804;9.952;2022-10-16T00:43:34;2.13;;;0.85;;
55617;SDS011;41492;49.804;9.952;2022-10-16T00:46:02;1.10;;;1.10;;
55617;SDS011;41492;49.804;9.952;2022-10-16T00:48:31;1.25;;;1.10;;
55617;SDS011;41492;49.804;9.952;2022-10-16T00:50:58;1.30;;;1.20;;
55617;SDS011;41492;49.804;9.952;2022-10-16T00:53:24;1.65;;;1.55;;
55617;SDS011;41492;49.804;9.952;2022-10-16T00:55:52;1.83;;;1.30;;
55617;SDS011;41492;49.804;9.952;2022-10-16T00:58:19;0.80;;;0.80;;
55617;SDS011;41492;49.804;9.952;2022-10-16T01:00:46;0.90;;;0.90;;
55617;SDS011;41492;49.804;9.952;2022-10-16T01:03:23;1.08;;;1.00;;
55617;SDS011;41492;49.804;9.952;2022-10-16T01:05:53;1.33;;;0.98;;
55617;SDS011;41492;49.804;9.952;2022-10-16T01:08:26;1.05;;;0.90;;
55617;SDS011;41492;49.804;9.952;2022-10-16T01:10:59;1.00;;;1.00;;
55617;SDS011;41492;49.804;9.952;2022-10-16T01:13:30;1.20;;;0.80;;
55617;SDS011;41492;49.804;9.952;2022-10-16T01:16:03;1.90;;;1.10;;
55617;SDS011;41492;49.804;9.952;2022-10-16T01:18:34;0.90;;;0.90;;
55617;SDS011;41492;49.804;9.952;2022-10-16T01:21:04;1.20;;;1.10;;
55617;SDS011;41492;49.804;9.952;2022-10-16T01:23:36;0.90;;;0.90;;
55617;SDS011;41492;49.804;9.952;2022-10-16T01:26:15;1.20;;;1.10;;
55617;SDS011;41492;49.804;9.952;2022-10-16T01:29:01;1.08;;;0.90;;
55617;SDS011;41492;49.804;9.952;2022-10-16T01:31:31;1.20;;;1.10;;
55617;SDS011;41492;49.804;9.952;2022-10-16T01:34:00;1.23;;;1.00;;
55617;SDS011;41492;49.804;9.952;2022-10-16T01:36:30;1.10;;;1.00;;
55617;SDS011;41492;49.804;9.952;2022-10-16T01:39:00;1.10;;;1.00;;
55617;SDS011;41492;49.804;9.952;2022-10-16T01:41:28;1.27;;;1.17;;
55617;SDS011;41492;49.804;9.952;2022-10-16T01:44:01;0.90;;;0.90;;
55617;SDS011;41492;49.804;9.952;2022-10-16T01:46:29;1.30;;;1.20;;
55617;SDS011;41492;49.804;9.952;2022-10-16T01:48:57;1.15;;;1.10;;
55617;SDS011;41492;49.804;9.952;2022-10-16T01:51:24;0.80;;;0.80;;
55617;SDS011;41492;49.804;9.952;2022-10-16T01:53:52;1.27;;;1.17;;
55617;SDS011;41492;49.804;9.952;2022-10-16T01:56:19;1.10;;;1.00;;
55617;SDS011;41492;49.804;9.952;2022-10-16T01:58:48;1.00;;;0.90;;
55617;SDS011;41492;49.804;9.952;2022-10-16T02:01:17;0.95;;;0.93;;
55617;SDS011;41492;49.804;9.952;2022-10-16T02:03:45;0.80;;;0.80;;
55617;SDS011;41492;49.804;9.952;2022-10-16T02:06:13;0.70;;;0.70;;
55617;SDS011;41492;49.804;9.952;2022-10-16T02:08:39;0.95;;;0.93;;
55617;SDS011;41492;49.804;9.952;2022-10-16T02:11:09;1.20;;;1.00;;
55617;SDS011;41492;49.804;9.952;2022-10-16T02:13:37;1.10;;;1.00;;
55617;SDS011;41492;49.804;9.952;2022-10-16T02:16:05;1.20;;;1.10;;
55617;SDS011;41492;49.804;9.952;2022-10-16T02:18:34;1.15;;;0.95;;
55617;SDS011;41492;49.804;9.952;2022-10-16T02:21:02;0.93;;;0.93;;
55617;SDS011;41492;49.804;9.952;2022-10-16T02:23:35;3.25;;;1.00;;
55617;SDS011;41492;49.804;9.952;2022-10-16T02:26:06;0.88;;;0.88;;
55617;SDS011;41492;49.804;9.952;2022-10-16T02:28:34;1.10;;;1.00;;
55617;SDS011;41492;49.804;9.952;2022-10-16T02:31:05;0.70;;;0.70;;
55617;SDS011;41492;49.804;9.952;2022-10-16T02:33:36;1.58;;;1.20;;
55617;SDS011;41492;49.804;9.952;2022-10-16T02:36:04;0.82;;;0.80;;
55617;SDS011;41492;49.804;9.952;2022-10-16T02:38:31;0.98;;;0.95;;
55617;SDS011;41492;49.804;9.952;2022-10-16T02:40:58;1.20;;;1.10;;
55617;SDS011;41492;49.804;9.952;2022-10-16T02:43:24;1.20;;;1.10;;
55617;SDS011;41492;49.804;9.952;2022-10-16T02:45:51;0.93;;;0.93;;
55617;SDS011;41492;49.804;9.952;2022-10-16T02:48:18;1.10;;;1.00;;
55617;SDS011;41492;49.804;9.952;2022-10-16T02:50:46;0.75;;;0.75;;
55617;SDS011;41492;49.804;9.952;2022-10-16T02:53:13;1.15;;;1.00;;
55617;SDS011;41492;49.804;9.952;2022-10-16T02:55:39;1.40;;;1.25;;
55617;SDS011;41492;49.804;9.952;2022-10-16T02:58:06;0.90;;;0.90;;
55617;SDS011;41492;49.804;9.952;2022-10-16T03:00:32;1.42;;;1.33;;
55617;SDS011;41492;49.804;9.952;2022-10-16T03:02:59;1.10;;;1.00;;
55617;SDS011;41492;49.804;9.952;2022-10-16T03:05:26;1.02;;;0.80;;
55617;SDS011;41492;49.804;9.952;2022-10-16T03:07:54;28.23;;;26.67;;
55617;SDS011;41492;49.804;9.952;2022-10-16T03:10:20;321.73;;;298.20;;
55617;SDS011;41492;49.804;9.952;2022-10-16T03:12:47;0.98;;;0.98;;
55617;SDS011;41492;49.804;9.952;2022-10-16T03:15:14;224.18;;;208.10;;
55617;SDS011;41492;49.804;9.952;2022-10-16T03:17:40;0.88;;;0.88;;
55617;SDS011;41492;49.804;9.952;2022-10-16T03:20:08;1.08;;;0.95;;
55617;SDS011;41492;49.804;9.952;2022-10-16T03:22:35;0.80;;;0.80;;
55617;SDS011;41492;49.804;9.952;2022-10-16T03:25:03;0.93;;;0.80;;
55617;SDS011;41492;49.804;9.952;2022-10-16T03:27:31;0.90;;;0.90;;
55617;SDS011;41492;49.804;9.952;2022-10-16T03:29:57;1.02;;;1.02;;
55617;SDS011;41492;49.804;9.952;2022-10-16T03:32:24;1.10;;;1.00;;
55617;SDS011;41492;49.804;9.952;2022-10-16T03:34:50;1.13;;;1.02;;
55617;SDS011;41492;49.804;9.952;2022-10-16T03:37:19;390.55;;;349.67;;
55617;SDS011;41492;49.804;9.952;2022-10-16T03:39:46;1.30;;;0.98;;
55617;SDS011;41492;49.804;9.952;2022-10-16T03:42:14;1.23;;;1.13;;
55617;SDS011;41492;49.804;9.952;2022-10-16T03:44:40;0.82;;;0.80;;
55617;SDS011;41492;49.804;9.952;2022-10-16T03:47:07;1.10;;;1.00;;
55617;SDS011;41492;49.804;9.952;2022-10-16T03:49:33;1.42;;;1.00;;
55617;SDS011;41492;49.804;9.952;2022-10-16T03:52:00;1.73;;;1.13;;
55617;SDS011;41492;49.804;9.952;2022-10-16T03:54:27;3.55;;;2.72;;
55617;SDS011;41492;49.804;9.952;2022-10-16T03:56:53;0.82;;;0.82;;
55617;SDS011;41492;49.804;9.952;2022-10-16T03:59:21;0.98;;;0.88;;
55617;SDS011;41492;49.804;9.952;2022-10-16T04:01:48;1.23;;;1.13;;
55617;SDS011;41492;49.804;9.952;2022-10-16T04:04:14;611.03;;;436.55;;
55617;SDS011;41492;49.804;9.952;2022-10-16T04:06:41;0.88;;;0.88;;
55617;SDS011;41492;49.804;9.952;2022-10-16T04:09:08;1.02;;;1.02;;
55617;SDS011;41492;49.804;9.952;2022-10-16T04:11:34;1.27;;;0.98;;
55617;SDS011;41492;49.804;9.952;2022-10-16T04:14:01;664.65;;;357.83;;
55617;SDS011;41492;49.804;9.952;2022-10-16T04:16:29;1.20;;;1.10;;
55617;SDS011;41492;49.804;9.952;2022-10-16T04:18:55;0.65;;;0.65;;
55617;SDS011;41492;49.804;9.952;2022-10-16T04:21:22;0.80;;;0.80;;
55617;SDS011;41492;49.804;9.952;2022-10-16T04:23:49;0.77;;;0.77;;
55617;SDS011;41492;49.804;9.952;2022-10-16T04:26:15;0.80;;;0.70;;
55617;SDS011;41492;49.804;9.952;2022-10-16T04:28:42;0.80;;;0.80;;
55617;SDS011;41492;49.804;9.952;2022-10-16T04:31:09;0.80;;;0.80;;
55617;SDS011;41492;49.804;9.952;2022-10-16T04:33:37;0.80;;;0.80;;
55617;SDS011;41492;49.804;9.952;2022-10-16T04:36:03;440.63;;;399.35;;
55617;SDS011;41492;49.804;9.952;2022-10-16T04:38:30;0.95;;;0.95;;
55617;SDS011;41492;49.804;9.952;2022-10-16T04:40:57;1.00;;;1.00;;
55617;SDS011;41492;49.804;9.952;2022-10-16T04:43:24;0.70;;;0.70;;
55617;SDS011;41492;49.804;9.952;2022-10-16T04:45:51;0.70;;;0.70;;
55617;SDS011;41492;49.804;9.952;2022-10-16T04:48:19;0.70;;;0.70;;
55617;SDS011;41492;49.804;9.952;2022-10-16T04:50:48;0.80;;;0.80;;
55617;SDS011;41492;49.804;9.952;2022-10-16T04:53:14;1.27;;;0.90;;
55617;SDS011;41492;49.804;9.952;2022-10-16T04:55:41;1.15;;;1.05;;
55617;SDS011;41492;49.804;9.952;2022-10-16T04:58:08;0.93;;;0.88;;
55617;SDS011;41492;49.804;9.952;2022-10-16T05:00:35;1.85;;;0.80;;
55617;SDS011;41492;49.804;9.952;2022-10-16T05:03:03;1.30;;;0.98;;
55617;SDS011;41492;49.804;9.952;2022-10-16T05:05:32;592.15;;;351.40;;
55617;SDS011;41492;49.804;9.952;2022-10-16T05:08:00;0.82;;;0.73;;
55617;SDS011;41492;49.804;9.952;2022-10-16T05:10:27;1.30;;;1.23;;
55617;SDS011;41492;49.804;9.952;2022-10-16T05:12:54;1.00;;;0.95;;
55617;SDS011;41492;49.804;9.952;2022-10-16T05:15:21;0.80;;;0.80;;
55617;SDS011;41492;49.804;9.952;2022-10-16T05:17:51;684.33;;;394.02;;
55617;SDS011;41492;49.804;9.952;2022-10-16T05:20:18;0.65;;;0.65;;
55617;SDS011;41492;49.804;9.952;2022-10-16T05:22:45;0.70;;;0.70;;
55617;SDS011;41492;49.804;9.952;2022-10-16T05:25:13;437.25;;;389.23;;
55617;SDS011;41492;49.804;9.952;2022-10-16T05:27:40;0.80;;;0.80;;
55617;SDS011;41492;49.804;9.952;2022-10-16T05:30:07;1.00;;;0.90;;
55617;SDS011;41492;49.804;9.952;2022-10-16T05:32:34;0.90;;;0.88;;
55617;SDS011;41492;49.804;9.952;2022-10-16T05:35:01;0.80;;;0.80;;
55617;SDS011;41492;49.804;9.952;2022-10-16T05:37:27;0.75;;;0.73;;
55617;SDS011;41492;49.804;9.952;2022-10-16T05:39:54;0.80;;;0.80;;
55617;SDS011;41492;49.804;9.952;2022-10-16T05:42:22;0.95;;;0.85;;
55617;SDS011;41492;49.804;9.952;2022-10-16T05:44:48;0.85;;;0.85;;
55617;SDS011;41492;49.804;9.952;2022-10-16T05:47:15;418.35;;;288.90;;
55617;SDS011;41492;49.804;9.952;2022-10-16T05:49:42;669.08;;;362.05;;
55617;SDS011;41492;49.804;9.952;2022-10-16T05:52:08;685.35;;;388.63;;
55617;SDS011;41492;49.804;9.952;2022-10-16T05:54:35;675.60;;;363.13;;
55617;SDS011;41492;49.804;9.952;2022-10-16T05:57:01;653.50;;;339.60;;
55617;SDS011;41492;49.804;9.952;2022-10-16T05:59:32;0.73;;;0.73;;
55617;SDS011;41492;49.804;9.952;2022-10-16T06:01:58;1.13;;;1.02;;
55617;SDS011;41492;49.804;9.952;2022-10-16T06:04:25;0.93;;;0.93;;
55617;SDS011;41492;49.804;9.952;2022-10-16T06:06:51;0.75;;;0.75;;
55617;SDS011;41492;49.804;9.952;2022-10-16T06:09:18;0.80;;;0.80;;
55617;SDS011;41492;49.804;9.952;2022-10-16T06:11:44;0.73;;;0.65;;
55617;SDS011;41492;49.804;9.952;2022-10-16T06:14:11;1.45;;;0.82;;
55617;SDS011;41492;49.804;9.952;2022-10-16T06:16:39;0.80;;;0.80;;
55617;SDS011;41492;49.804;9.952;2022-10-16T06:19:06;1.00;;;0.90;;
55617;SDS011;41492;49.804;9.952;2022-10-16T06:21:34;0.82;;;0.82;;
55617;SDS011;41492;49.804;9.952;2022-10-16T06:24:00;0.93;;;0.93;;
55617;SDS011;41492;49.804;9.952;2022-10-16T06:26:28;0.90;;;0.80;;
55617;SDS011;41492;49.804;9.952;2022-10-16T06:28:55;0.82;;;0.82;;
55617;SDS011;41492;49.804;9.952;2022-10-16T06:31:23;0.82;;;0.80;;
55617;SDS011;41492;49.804;9.952;2022-10-16T06:33:55;0.70;;;0.70;;
55617;SDS011;41492;49.804;9.952;2022-10-16T06:36:22;621.03;;;398.30;;
55617;SDS011;41492;49.804;9.952;2022-10-16T06:38:49;0.90;;;0.90;;
55617;SDS011;41492;49.804;9.952;2022-10-16T06:41:16;0.85;;;0.85;;
55617;SDS011;41492;49.804;9.952;2022-10-16T06:43:44;0.95;;;0.90;;
55617;SDS011;41492;49.804;9.952;2022-10-16T06:46:11;0.77;;;0.77;;
55617;SDS011;41492;49.804;9.952;2022-10-16T06:48:39;0.80;;;0.80;;
55617;SDS011;41492;49.804;9.952;2022-10-16T06:51:09;1.00;;;1.00;;
55617;SDS011;41492;49.804;9.952;2022-10-16T06:53:37;375.48;;;125.32;;
55617;SDS011;41492;49.804;9.952;2022-10-16T06:56:08;0.95;;;0.95;;
55617;SDS011;41492;49.804;9.952;2022-10-16T06:58:35;1.15;;;1.10;;
55617;SDS011;41492;49.804;9.952;2022-10-16T07:01:02;0.88;;;0.85;;
55617;SDS011;41492;49.804;9.952;2022-10-16T07:03:29;1.15;;;0.85;;
55617;SDS011;41492;49.804;9.952;2022-10-16T07:05:56;1.05;;;0.95;;
55617;SDS011;41492;49.804;9.952;2022-10-16T07:08:24;0.98;;;0.80;;
55617;SDS011;41492;49.804;9.952;2022-10-16T07:10:57;0.80;;;0.80;;
55617;SDS011;41492;49.804;9.952;2022-10-16T07:13:25;0.90;;;0.90;;
55617;SDS011;41492;49.804;9.952;2022-10-16T07:15:51;0.90;;;0.90;;
55617;SDS011;41492;49.804;9.952;2022-10-16T07:18:18;0.90;;;0.90;;
55617;SDS011;41492;49.804;9.952;2022-10-16T07:20:45;0.98;;;0.93;;
55617;SDS011;41492;49.804;9.952;2022-10-16T07:23:11;0.80;;;0.80;;
55617;SDS011;41492;49.804;9.952;2022-10-16T07:25:39;0.82;;;0.80;;
55617;SDS011;41492;49.804;9.952;2022-10-16T07:28:06;0.80;;;0.80;;
55617;SDS011;41492;49.804;9.952;2022-10-16T07:30:34;1.00;;;1.00;;
55617;SDS011;41492;49.804;9.952;2022-10-16T07:33:01;0.70;;;0.70;;
55617;SDS011;41492;49.804;9.952;2022-10-16T07:35:28;0.80;;;0.80;;
55617;SDS011;41492;49.804;9.952;2022-10-16T07:37:55;0.82;;;0.82;;
55617;SDS011;41492;49.804;9.952;2022-10-16T07:40:21;0.82;;;0.80;;
55617;SDS011;41492;49.804;9.952;2022-10-16T07:42:49;1.17;;;1.00;;
55617;SDS011;41492;49.804;9.952;2022-10-16T07:45:16;1.55;;;1.55;;
55617;SDS011;41492;49.804;9.952;2022-10-16T07:47:42;626.78;;;303.27;;
55617;SDS011;41492;49.804;9.952;2022-10-16T07:50:09;625.97;;;266.20;;
55617;SDS011;41492;49.804;9.952;2022-10-16T07:52:36;642.97;;;344.70;;
55617;SDS011;41492;49.804;9.952;2022-10-16T07:55:02;653.42;;;324.65;;
55617;SDS011;41492;49.804;9.952;2022-10-16T07:57:29;663.63;;;369.05;;
55617;SDS011;41492;49.804;9.952;2022-10-16T07:59:57;498.02;;;385.92;;
55617;SDS011;41492;49.804;9.952;2022-10-16T08:02:24;8.48;;;8.02;;
55617;SDS011;41492;49.804;9.952;2022-10-16T08:04:51;100.43;;;94.65;;
55617;SDS011;41492;49.804;9.952;2022-10-16T08:07:17;1.10;;;1.00;;
55617;SDS011;41492;49.804;9.952;2022-10-16T08:09:44;1.10;;;1.00;;
55617;SDS011;41492;49.804;9.952;2022-10-16T08:12:10;0.90;;;0.90;;
55617;SDS011;41492;49.804;9.952;2022-10-16T08:14:37;661.45;;;334.95;;
55617;SDS011;41492;49.804;9.952;2022-10-16T08:17:05;0.73;;;0.73;;
55617;SDS011;41492;49.804;9.952;2022-10-16T08:19:32;1.00;;;1.00;;
55617;SDS011;41492;49.804;9.952;2022-10-16T08:21:59;0.80;;;0.80;;
55617;SDS011;41492;49.804;9.952;2022-10-16T08:24:26;383.98;;;301.55;;
55617;SDS011;41492;49.804;9.952;2022-10-16T08:26:55;607.50;;;241.00;;
55617;SDS011;41492;49.804;9.952;2022-10-16T08:29:22;1.00;;;0.90;;
55617;SDS011;41492;49.804;9.952;2022-10-16T08:31:49;1.45;;;1.25;;
55617;SDS011;41492;49.804;9.952;2022-10-16T08:34:16;0.88;;;0.88;;
55617;SDS011;41492;49.804;9.952;2022-10-16T08:36:43;0.70;;;0.70;;
55617;SDS011;41492;49.804;9.952;2022-10-16T08:39:10;1.08;;;0.80;;
55617;SDS011;41492;49.804;9.952;2022-10-16T08:41:48;1.52;;;0.90;;
55617;SDS011;41492;49.804;9.952;2022-10-16T08:44:34;430.05;;;234.15;;
55617;SDS011;41492;49.804;9.952;2022-10-16T08:47:09;0.90;;;0.90;;
55617;SDS011;41492;49.804;9.952;2022-10-16T08:49:41;449.48;;;392.60;;
55617;SDS011;41492;49.804;9.952;2022-10-16T08:52:10;1.17;;;1.10;;
55617;SDS011;41492;49.804;9.952;2022-10-16T08:54:39;1.13;;;1.02;;
55617;SDS011;41492;49.804;9.952;2022-10-16T08:57:09;0.93;;;0.93;;
55617;SDS011;41492;49.804;9.952;2022-10-16T08:59:37;0.88;;;0.85;;
55617;SDS011;41492;49.804;9.952;2022-10-16T09:02:08;407.20;;;345.05;;
55617;SDS011;41492;49.804;9.952;2022-10-16T09:07:49;0.90;;;0.90;;
55617;SDS011;41492;49.804;9.952;2022-10-16T09:10:24;0.80;;;0.80;;
55617;SDS011;41492;49.804;9.952;2022-10-16T09:13:00;1.10;;;1.10;;
55617;SDS011;41492;49.804;9.952;2022-10-16T09:15:32;0.80;;;0.80;;
55617;SDS011;41492;49.804;9.952;2022-10-16T09:18:03;1.10;;;1.00;;
55617;SDS011;41492;49.804;9.952;2022-10-16T09:20:35;0.75;;;0.75;;
55617;SDS011;41492;49.804;9.952;2022-10-16T09:23:16;1.05;;;1.00;;
55617;SDS011;41492;49.804;9.952;2022-10-16T09:25:44;1.10;;;0.95;;
55617;SDS011;41492;49.804;9.952;2022-10-16T09:28:13;1.20;;;1.10;;
55617;SDS011;41492;49.804;9.952;2022-10-16T09:30:41;0.98;;;0.98;;
55617;SDS011;41492;49.804;9.952;2022-10-16T09:33:09;1.10;;;1.00;;
55617;SDS011;41492;49.804;9.952;2022-10-16T09:35:38;1.27;;;1.08;;
55617;SDS011;41492;49.804;9.952;2022-10-16T09:38:06;0.82;;;0.82;;
55617;SDS011;41492;49.804;9.952;2022-10-16T09:40:33;0.95;;;0.95;;
55617;SDS011;41492;49.804;9.952;2022-10-16T09:43:02;0.88;;;0.75;;
55617;SDS011;41492;49.804;9.952;2022-10-16T09:45:32;0.90;;;0.90;;
55617;SDS011;41492;49.804;9.952;2022-10-16T09:48:00;1.25;;;0.90;;
55617;SDS011;41492;49.804;9.952;2022-10-16T09:50:28;1.10;;;1.00;;
55617;SDS011;41492;49.804;9.952;2022-10-16T09:53:07;1.00;;;0.90;;
55617;SDS011;41492;49.804;9.952;2022-10-16T09:55:47;1.30;;;1.20;;
55617;SDS011;41492;49.804;9.952;2022-10-16T09:58:15;1.05;;;0.95;;
55617;SDS011;41492;49.804;9.952;2022-10-16T10:00:42;1.20;;;1.10;;
55617;SDS011;41492;49.804;9.952;2022-10-16T10:03:15;0.80;;;0.80;;
55617;SDS011;41492;49.804;9.952;2022-10-16T10:05:56;1.10;;;1.00;;
55617;SDS011;41492;49.804;9.952;2022-10-16T10:08:24;0.95;;;0.90;;
55617;SDS011;41492;49.804;9.952;2022-10-16T10:10:51;1.02;;;1.00;;
55617;SDS011;41492;49.804;9.952;2022-10-16T10:13:20;0.95;;;0.90;;
55617;SDS011;41492;49.804;9.952;2022-10-16T10:15:48;2.45;;;1.00;;
55617;SDS011;41492;49.804;9.952;2022-10-16T10:18:16;1.23;;;1.13;;
55617;SDS011;41492;49.804;9.952;2022-10-16T10:20:43;1.15;;;0.98;;
55617;SDS011;41492;49.804;9.952;2022-10-16T10:23:20;1.33;;;1.13;;
55617;SDS011;41492;49.804;9.952;2022-10-16T10:25:51;1.02;;;0.90;;
55617;SDS011;41492;49.804;9.952;2022-10-16T10:28:34;374.67;;;347.08;;
55617;SDS011;41492;49.804;9.952;2022-10-16T10:31:10;1.15;;;1.10;;
55617;SDS011;41492;49.804;9.952;2022-10-16T10:33:42;1.23;;;0.90;;
55617;SDS011;41492;49.804;9.952;2022-10-16T10:36:20;1.05;;;0.90;;
55617;SDS011;41492;49.804;9.952;2022-10-16T10:38:52;0.80;;;0.80;;
55617;SDS011;41492;49.804;9.952;2022-10-16T10:44:11;0.98;;;0.90;;
55617;SDS011;41492;49.804;9.952;2022-10-16T10:46:45;1.17;;;1.08;;
55617;SDS011;41492;49.804;9.952;2022-10-16T10:49:19;1.48;;;1.20;;
55617;SDS011;41492;49.804;9.952;2022-10-16T10:51:57;1.88;;;0.88;;
55617;SDS011;41492;49.804;9.952;2022-10-16T10:54:30;1.27;;;1.10;;
55617;SDS011;41492;49.804;9.952;2022-10-16T10:57:02;1.20;;;1.10;;
55617;SDS011;41492;49.804;9.952;2022-10-16T10:59:36;289.13;;;261.77;;
55617;SDS011;41492;49.804;9.952;2022-10-16T11:02:26;9.10;;;8.65;;
55617;SDS011;41492;49.804;9.952;2022-10-16T11:07:54;2.05;;;0.90;;
55617;SDS011;41492;49.804;9.952;2022-10-16T11:10:24;1.38;;;1.00;;
55617;SDS011;41492;49.804;9.952;2022-10-16T11:12:56;0.90;;;0.90;;
55617;SDS011;41492;49.804;9.952;2022-10-16T11:15:25;0.95;;;0.95;;
55617;SDS011;41492;49.804;9.952;2022-10-16T11:17:57;1.30;;;1.20;;
55617;SDS011;41492;49.804;9.952;2022-10-16T11:20:28;1.00;;;1.00;;
55617;SDS011;41492;49.804;9.952;2022-10-16T11:22:59;1.90;;;1.08;;
55617;SDS011;41492;49.804;9.952;2022-10-16T11:25:29;0.93;;;0.90;;
55617;SDS011;41492;49.804;9.952;2022-10-16T11:27:59;1.42;;;1.33;;
55617;SDS011;41492;49.804;9.952;2022-10-16T11:30:29;0.93;;;0.80;;
55617;SDS011;41492;49.804;9.952;2022-10-16T11:33:00;1.20;;;1.10;;
55617;SDS011;41492;49.804;9.952;2022-10-16T11:35:33;2.45;;;2.35;;
55617;SDS011;41492;49.804;9.952;2022-10-16T11:38:09;1.35;;;1.25;;
55617;SDS011;41492;49.804;9.952;2022-10-16T11:40:39;1.27;;;1.17;;
55617;SDS011;41492;49.804;9.952;2022-10-16T11:43:10;189.85;;;177.40;;
55617;SDS011;41492;49.804;9.952;2022-10-16T11:45:40;6.00;;;5.65;;
55617;SDS011;41492;49.804;9.952;2022-10-16T11:48:12;656.15;;;305.10;;
55617;SDS011;41492;49.804;9.952;2022-10-16T11:50:45;697.13;;;398.48;;
55617;SDS011;41492;49.804;9.952;2022-10-16T11:53:18;654.83;;;351.38;;
55617;SDS011;41492;49.804;9.952;2022-10-16T11:55:50;3.03;;;0.98;;
55617;SDS011;41492;49.804;9.952;2022-10-16T11:58:21;1.33;;;1.08;;
55617;SDS011;41492;49.804;9.952;2022-10-16T12:00:53;34.45;;;32.83;;
55617;SDS011;41492;49.804;9.952;2022-10-16T12:03:26;660.50;;;329.98;;
55617;SDS011;41492;49.804;9.952;2022-10-16T12:05:58;636.30;;;296.10;;
55617;SDS011;41492;49.804;9.952;2022-10-16T12:08:33;647.20;;;321.17;;
55617;SDS011;41492;49.804;9.952;2022-10-16T12:11:06;611.75;;;256.02;;
55617;SDS011;41492;49.804;9.952;2022-10-16T12:13:37;638.83;;;307.70;;
55617;SDS011;41492;49.804;9.952;2022-10-16T12:16:19;610.92;;;241.18;;
55617;SDS011;41492;49.804;9.952;2022-10-16T12:18:47;649.08;;;335.92;;
55617;SDS011;41492;49.804;9.952;2022-10-16T12:21:15;645.28;;;323.58;;
55617;SDS011;41492;49.804;9.952;2022-10-16T12:23:47;651.35;;;340.15;;
55617;SDS011;41492;49.804;9.952;2022-10-16T12:26:15;644.88;;;322.55;;
55617;SDS011;41492;49.804;9.952;2022-10-16T12:28:51;660.38;;;364.70;;
55617;SDS011;41492;49.804;9.952;2022-10-16T12:31:18;657.72;;;360.20;;
55617;SDS011;41492;49.804;9.952;2022-10-16T12:33:52;657.13;;;356.50;;
55617;SDS011;41492;49.804;9.952;2022-10-16T12:36:26;656.65;;;357.00;;
55617;SDS011;41492;49.804;9.952;2022-10-16T12:38:54;651.25;;;338.27;;
55617;SDS011;41492;49.804;9.952;2022-10-16T12:41:24;647.72;;;324.88;;
55617;SDS011;41492;49.804;9.952;2022-10-16T12:43:53;654.15;;;349.98;;
55617;SDS011;41492;49.804;9.952;2022-10-16T12:46:21;652.92;;;342.63;;
55617;SDS011;41492;49.804;9.952;2022-10-16T12:48:50;649.22;;;328.95;;
55617;SDS011;41492;49.804;9.952;2022-10-16T12:51:22;658.75;;;364.52;;
55617;SDS011;41492;49.804;9.952;2022-10-16T12:53:57;654.88;;;344.05;;
55617;SDS011;41492;49.804;9.952;2022-10-16T12:56:26;658.67;;;364.95;;
55617;SDS011;41492;49.804;9.952;2022-10-16T12:59:03;654.90;;;349.88;;
55617;SDS011;41492;49.804;9.952;2022-10-16T13:01:38;649.85;;;333.90;;
55617;SDS011;41492;49.804;9.952;2022-10-16T13:04:11;658.30;;;366.35;;
55617;SDS011;41492;49.804;9.952;2022-10-16T13:06:59;660.00;;;364.67;;
55617;SDS011;41492;49.804;9.952;2022-10-16T13:09:35;654.72;;;351.67;;
55617;SDS011;41492;49.804;9.952;2022-10-16T13:12:14;660.03;;;367.20;;
55617;SDS011;41492;49.804;9.952;2022-10-16T13:14:54;659.30;;;368.85;;
55617;SDS011;41492;49.804;9.952;2022-10-16T13:17:37;659.70;;;364.90;;
55617;SDS011;41492;49.804;9.952;2022-10-16T13:20:12;655.40;;;350.13;;
55617;SDS011;41492;49.804;9.952;2022-10-16T13:22:47;651.15;;;341.13;;
55617;SDS011;41492;49.804;9.952;2022-10-16T13:25:21;659.15;;;357.75;;
55617;SDS011;41492;49.804;9.952;2022-10-16T13:27:51;659.85;;;371.85;;
55617;SDS011;41492;49.804;9.952;2022-10-16T13:30:22;658.55;;;360.92;;
55617;SDS011;41492;49.804;9.952;2022-10-16T13:32:52;653.58;;;345.52;;
55617;SDS011;41492;49.804;9.952;2022-10-16T13:35:25;652.55;;;340.13;;
55617;SDS011;41492;49.804;9.952;2022-10-16T13:38:02;654.42;;;344.20;;
55617;SDS011;41492;49.804;9.952;2022-10-16T13:40:30;660.30;;;378.30;;
55617;SDS011;41492;49.804;9.952;2022-10-16T13:42:59;658.53;;;365.70;;
55617;SDS011;41492;49.804;9.952;2022-10-16T13:45:27;660.38;;;372.95;;
55617;SDS011;41492;49.804;9.952;2022-10-16T13:48:01;660.00;;;372.95;;
55617;SDS011;41492;49.804;9.952;2022-10-16T13:50:28;655.65;;;348.88;;
55617;SDS011;41492;49.804;9.952;2022-10-16T13:53:02;656.70;;;365.05;;
55617;SDS011;41492;49.804;9.952;2022-10-16T13:55:30;659.47;;;371.80;;
55617;SDS011;41492;49.804;9.952;2022-10-16T13:58:04;655.13;;;353.75;;
55617;SDS011;41492;49.804;9.952;2022-10-16T14:00:32;662.10;;;375.75;;
55617;SDS011;41492;49.804;9.952;2022-10-16T14:03:00;660.15;;;370.70;;
55617;SDS011;41492;49.804;9.952;2022-10-16T14:05:28;658.65;;;370.90;;
55617;SDS011;41492;49.804;9.952;2022-10-16T14:07:55;654.70;;;358.50;;
55617;SDS011;41492;49.804;9.952;2022-10-16T14:10:23;656.30;;;358.90;;
55617;SDS011;41492;49.804;9.952;2022-10-16T14:12:58;660.70;;;373.52;;
55617;SDS011;41492;49.804;9.952;2022-10-16T14:15:26;656.42;;;365.48;;
55617;SDS011;41492;49.804;9.952;2022-10-16T14:17:54;660.28;;;372.85;;
55617;SDS011;41492;49.804;9.952;2022-10-16T14:20:22;659.38;;;369.52;;
55617;SDS011;41492;49.804;9.952;2022-10-16T14:22:57;654.22;;;352.10;;
55617;SDS011;41492;49.804;9.952;2022-10-16T14:25:26;653.58;;;349.63;;
55617;SDS011;41492;49.804;9.952;2022-10-16T14:27:57;655.55;;;351.05;;
55617;SDS011;41492;49.804;9.952;2022-10-16T14:30:25;664.78;;;379.30;;
55617;SDS011;41492;49.804;9.952;2022-10-16T14:32:54;659.70;;;369.00;;
55617;SDS011;41492;49.804;9.952;2022-10-16T14:35:23;662.53;;;382.33;;
55617;SDS011;41492;49.804;9.952;2022-10-16T14:37:51;659.53;;;363.02;;
55617;SDS011;41492;49.804;9.952;2022-10-16T14:40:19;660.35;;;369.60;;
55617;SDS011;41492;49.804;9.952;2022-10-16T14:42:46;657.80;;;366.50;;
55617;SDS011;41492;49.804;9.952;2022-10-16T14:45:14;658.40;;;361.10;;
55617;SDS011;41492;49.804;9.952;2022-10-16T14:47:47;661.80;;;375.52;;
55617;SDS011;41492;49.804;9.952;2022-10-16T14:50:17;665.47;;;389.50;;
55617;SDS011;41492;49.804;9.952;2022-10-16T14:52:43;657.58;;;364.60;;